Amboy, Indiana
Current Conditions -  °F | °C
As of 3:15 PM on Friday 21 Nov 2014 (Local Time) from KOKK Reporting Station
Clear Clear  
Wind Chill: 21°   Ceiling: Unl
Heat Index: 28°   Visibility: 10mi
Dew Point: 14°   Wind: 7mph
Humidity: 55%   Direction: 150°SSE
Pressure: 30.42"   Gusts: NA
Location:  40.6°N, 85.93°W
Report Text: KOKK 212015Z AUTO 15006KT 10SM CLR M02/M10 A3042 RMK AO1
Loading
Personal Weather Stations






























Interactive Weather Map New forecast layout! Learn more

10-Day Weather Forecast

Advertisements
Track Severe Weather on mobile